Terminal Aerodrome Forecast
Issued by NWS

Home | Current Version | Previous Version | Text Only | Print | Product List | Glossary On
Versions: 1 2 3 4 5 6 7 8 9 10 11 12 13 14 15 16 17 18 19 20 21 22 23 24
000
FTUS41 KBUF 081133
TAFJHW
TAF
KJHW 081133Z 0812/0912 23009KT P6SM OVC035
     FM081500 25010G16KT P6SM VCSH OVC020
     FM081800 26014G21KT 4SM -SN OVC020
     FM082100 26015G22KT 1/2SM SN BLSN OVC012
     FM090300 27013G20KT 1/4SM +SN OVC007
     FM091100 29013KT 1/2SM SN OVC015
      AMD LTD TO CLD VIS AND WIND=

USA.gov is the U.S. government's official web portal to all federal, state and local government web resources and services.